CheckWX is a tool to help pilots better visualize weather data.  It is not intended as a substitute for an official pre-flight weather briefing.

15:41:00 UTC

KHNB METAR
Huntingburg Airport
Huntingburg, Indiana, USA
Current

26 mins ago

KHNB 261515Z AUTO 00000KT 10SM FEW002 27/21 A3007 RMK AO2
Observed
May-26 @ 15:15 UTC
Visibility
10 SM
Flight Rules
VFR
Cloud Levels
  • Few at 200' AGL
Temperature
27°C / 81°F
Dewpoint
21°C / 70°F
Heat Index
29°C / 85°F
Humidity
70%
Altimeter
30.07" Hg
Pressure
1018.32 hPa
Previous

45 mins ago

KHNB 261456Z AUTO 24004KT 10SM SCT070 27/21 A3007 RMK AO2 SLP177 T02720206 58004
Observed
May-26 @ 14:56 UTC
Wind
  • 240° at 4 KTS
Visibility
10 SM
Flight Rules
VFR
Cloud Levels
  • Scattered at 7,000' AGL
Temperature
27°C / 81°F
Dewpoint
21°C / 70°F
Heat Index
29°C / 85°F
Humidity
70%
Altimeter
30.07" Hg
Pressure
1018.32 hPa
Previous

2 hours ago

KHNB 261356Z AUTO 23004KT 10SM FEW060 26/21 A3007 RMK AO2 SLP179 T02560206
Observed
May-26 @ 13:56 UTC
Wind
  • 230° at 4 KTS
Visibility
10 SM
Flight Rules
VFR
Cloud Levels
  • Few at 6,000' AGL
Temperature
26°C / 79°F
Dewpoint
21°C / 70°F
Humidity
74%
Altimeter
30.07" Hg
Pressure
1018.32 hPa